Aérodrome :
LOGIN :

S'inscrire | Disclaimer

   EN    FR    IT 

 










Légende :    VFR   VFR Marginal   IFR   IFR Intensif   IFR Très Intensif
Visi : 
Plafond : 
>= 8 km
>= 3000ft
5 à 8 km
1000 à 3000 ft
1500m à 5 km
500 à 1000 ft
800 à 1500m
200 à 500 ft
< 800m
< 200 ft
Symboles :   Orages  Brouillard  Fortes neiges  Fortes précipitations  Vent > 20 kt
SIGMETs :   Divers  Orages  Givrage  Turbulence  Onde Orograph.  Cendres Volcan.







- Altitude de l'aérodrome : 42 ft
- Code IATA : LMO


EGQS - Lossiemouth

DERNIER METAR :
  • 160550Z 18015KT CAVOK 10/04 Q1007 BLU NOSIG

METARs EXPIRÉS :
  • 160450Z 16003KT CAVOK 08/03 Q1008 BLU
  • 160350Z 14005KT CAVOK 09/04 Q1009 BLU

TAF AMD TAF EGQS
Valide du 16 à 06h jusqu'au 17 à 00h UTC


160551Z 1606/1624 18014KT 9999 FEW030
PROB40
TEMPO 1606/1612 19015G25KT
TEMPO 1612/1622 23016G26KT
PROB30
TEMPO 1622/1624 6000 RA SCT020
Pas de NOTAMs connus pour ce terrain.
4 SIGMETs publiés pour la FIR Scottish (EGPX) :
 
Onde orographique forte
EGPX SIGMET 04 VALID 160700/161100 EGRR
EGPX SCOTTISH FIR SEV MTW FCST W OF LINE N5958 E00003 - N5500 W00434 FL050/280 STNR NC=
Turbulence forte
EGPX SIGMET 03 VALID 160700/161100 EGRR
EGPX SCOTTISH FIR SEV TURB FCST W OF LINE N5523 W01000 - N6100 W00434 SFC/FL060 MOV NE 15KT NC=
Onde orographique forte
EGPX SIGMET 02 VALID 160330/160700 EGRR
EGPX SCOTTISH FIR SEV MTW FCST W OF LINE N6054 W00123 - N5404 W00620 FL050/280 MOV E 10KT NC=
Turbulence forte
EGPX SIGMET 01 VALID 160330/160700 EGRR
EGPX SCOTTISH FIR SEV TURB FCST W OF LINE N5635 W01000 - N6100 W00804 SFC/FL060 MOV E 10KT INTSF=



MET'MAP, la Météo Aéronautique d'un coup d'oeil ! - Copyright ORBIFLY Décembre 2007 - Disclaimer

ORBIFLY MET'MAP TEAM :

Programmation & Développement : Alexandra Zaïnal
Conception & Développement : Baudouin d'Aumeries
Co-Programmation & Développement : Marc-Olivier Méhu
Soutien technique & logistique : Manuel Goepfert

Contact : metmap@orbifly.com




SOURCES & CREDITS :

   NOAA